createdAt,value
2018-06-05T00:01:18.217Z,45.27
2018-06-05T00:03:50.055Z,45.32
2018-06-05T00:06:43.229Z,45.52
2018-06-05T00:09:14.909Z,45.48
2018-06-05T00:11:49.069Z,45.10
2018-06-05T00:14:19.547Z,45.50
2018-06-05T00:16:50.518Z,45.49
2018-06-05T00:19:23.298Z,45.58
2018-06-05T00:21:53.984Z,45.23
2018-06-05T00:24:24.573Z,45.99
2018-06-05T00:26:56.543Z,45.43
2018-06-05T00:29:27.633Z,45.76
2018-06-05T00:31:58.162Z,45.94
2018-06-05T00:34:29.510Z,45.96
2018-06-05T00:37:00.024Z,45.70
2018-06-05T00:39:32.290Z,46.12
2018-06-05T00:42:03.576Z,45.53
2018-06-05T00:44:35.669Z,46.06
2018-06-05T00:47:06.966Z,46.32
2018-06-05T00:49:39.512Z,46.41
2018-06-05T00:52:10.710Z,45.95
2018-06-05T00:54:45.763Z,46.45
2018-06-05T00:57:18.612Z,46.73
2018-06-05T00:59:50.019Z,46.18
2018-06-05T01:02:21.472Z,45.98
2018-06-05T01:04:53.505Z,46.70
2018-06-05T01:07:26.293Z,46.34
2018-06-05T01:09:59.697Z,46.25
2018-06-05T01:12:32.985Z,46.82
2018-06-05T01:15:04.816Z,46.77
2018-06-05T01:17:35.380Z,46.68
2018-06-05T01:20:09.445Z,46.70
2018-06-05T01:22:42.574Z,46.78
2018-06-05T01:25:13.438Z,46.73
2018-06-05T01:27:44.283Z,47.50
2018-06-05T01:30:15.460Z,47.63
2018-06-05T01:32:48.095Z,46.78
2018-06-05T01:35:19.906Z,47.25
2018-06-05T01:37:50.671Z,47.48
2018-06-05T01:40:23.857Z,46.87
2018-06-05T01:42:55.191Z,47.58
2018-06-05T01:45:28.839Z,46.99
2018-06-05T01:47:59.374Z,47.19
2018-06-05T01:50:33.672Z,47.48
2018-06-05T01:53:05.302Z,47.33
2018-06-05T01:55:37.652Z,47.88
2018-06-05T01:58:08.304Z,48.10
2018-06-05T02:00:41.093Z,48.30
2018-06-05T02:03:13.246Z,47.63
2018-06-05T02:05:44.669Z,48.30
2018-06-05T02:08:16.685Z,47.96
2018-06-05T02:10:51.878Z,48.29
2018-06-05T02:13:23.573Z,47.72
2018-06-05T02:15:54.110Z,48.78
2018-06-05T02:18:24.652Z,48.49
2018-06-05T02:20:55.318Z,48.46
2018-06-05T02:23:25.925Z,47.97
2018-06-05T02:25:58.937Z,48.68
2018-06-05T02:28:30.446Z,48.00
2018-06-05T02:31:04.710Z,47.92
2018-06-05T02:33:40.663Z,47.84
2018-06-05T02:36:14.985Z,47.73
2018-06-05T02:38:48.415Z,48.13
2018-06-05T02:41:21.434Z,48.33
2018-06-05T02:43:54.177Z,47.73
2018-06-05T02:46:27.110Z,48.49
2018-06-05T02:49:01.504Z,48.38
2018-06-05T02:51:34.492Z,47.97
2018-06-05T02:54:07.028Z,47.71
2018-06-05T02:56:37.740Z,47.99
2018-06-05T02:59:08.300Z,48.56
2018-06-05T03:01:39.829Z,47.89
2018-06-05T03:04:10.361Z,47.86
2018-06-05T03:06:41.856Z,48.42
2018-06-05T03:11:41.147Z,48.02
2018-06-05T03:14:13.555Z,47.74
2018-06-05T03:16:44.046Z,48.38
2018-06-05T03:19:15.186Z,48.24
2018-06-05T03:21:45.670Z,48.22
2018-06-05T03:24:15.969Z,47.89
2018-06-05T03:26:47.034Z,47.88
2018-06-05T03:29:17.589Z,47.98
2018-06-05T03:31:48.122Z,47.49
2018-06-05T03:34:19.710Z,47.87
2018-06-05T03:36:50.743Z,46.99
2018-06-05T03:39:28.307Z,47.13
2018-06-05T03:41:59.322Z,47.10
2018-06-05T03:44:30.208Z,47.47
2018-06-05T03:47:00.866Z,47.42
2018-06-05T03:49:35.232Z,47.72
2018-06-05T03:52:06.128Z,47.36
2018-06-05T03:54:37.395Z,46.95
2018-06-05T03:57:08.937Z,46.81
2018-06-05T03:59:39.976Z,46.81
2018-06-05T04:02:12.429Z,46.81
2018-06-05T04:04:42.998Z,45.72
2018-06-05T04:07:14.497Z,45.67
2018-06-05T04:09:45.220Z,45.49
2018-06-05T04:12:15.775Z,45.09
2018-06-05T04:14:46.689Z,43.83
2018-06-05T04:17:17.881Z,44.33
2018-06-05T04:19:48.426Z,44.05
2018-06-05T04:22:19.910Z,44.51
2018-06-05T04:24:50.444Z,43.51
2018-06-05T04:27:24.146Z,43.17
2018-06-05T04:29:54.636Z,43.62
2018-06-05T04:32:25.264Z,42.43
2018-06-05T04:34:57.636Z,41.89
2018-06-05T04:37:30.064Z,41.85
2018-06-05T04:40:06.772Z,40.90
2018-06-05T04:42:37.381Z,41.47
2018-06-05T04:45:07.905Z,40.68
2018-06-05T04:47:38.942Z,39.94
2018-06-05T04:50:09.475Z,39.16
2018-06-05T04:52:40.565Z,39.98
2018-06-05T04:55:11.501Z,39.90
2018-06-05T04:57:42.940Z,39.14
2018-06-05T05:00:16.638Z,39.40
2018-06-05T05:02:47.147Z,39.30
2018-06-05T05:05:17.726Z,38.82
2018-06-05T05:07:48.218Z,39.22
2018-06-05T05:10:18.793Z,38.79
2018-06-05T05:12:49.291Z,38.81
2018-06-05T05:15:20.936Z,39.24
2018-06-05T05:17:52.327Z,39.08
2018-06-05T05:20:22.833Z,38.83
2018-06-05T05:22:54.446Z,38.34
2018-06-05T05:25:25.024Z,37.94
2018-06-05T05:27:57.221Z,37.14
2018-06-05T05:30:32.816Z,37.23
2018-06-05T05:33:03.434Z,37.09
2018-06-05T05:35:34.355Z,36.74
2018-06-05T05:38:07.149Z,36.88
2018-06-05T05:40:38.294Z,37.12
2018-06-05T05:43:11.584Z,36.36
2018-06-05T05:45:43.463Z,36.89
2018-06-05T05:48:14.345Z,36.55
2018-06-05T05:50:44.970Z,36.21
2018-06-05T05:53:16.693Z,35.68
2018-06-05T05:55:47.299Z,35.21
2018-06-05T05:58:17.950Z,35.74
2018-06-05T06:00:49.271Z,35.17
2018-06-05T06:03:22.108Z,34.37
2018-06-05T06:05:53.243Z,34.51
2018-06-05T06:08:25.544Z,35.08
2018-06-05T06:10:57.618Z,34.41
2018-06-05T06:13:29.000Z,34.05
2018-06-05T06:15:59.562Z,33.40
2018-06-05T06:18:30.192Z,32.30
2018-06-05T06:21:01.492Z,33.55
2018-06-05T06:23:34.437Z,33.54
2018-06-05T06:26:04.989Z,33.68
2018-06-05T06:28:36.128Z,33.32
2018-06-05T06:31:06.830Z,32.95
2018-06-05T06:33:37.461Z,33.71
2018-06-05T06:36:09.065Z,33.44
2018-06-05T06:38:39.696Z,34.50
2018-06-05T06:41:10.291Z,34.01
2018-06-05T06:43:40.744Z,34.57
2018-06-05T06:46:11.449Z,34.31
2018-06-05T06:48:42.498Z,33.84
2018-06-05T06:51:13.387Z,33.02
2018-06-05T06:53:44.158Z,33.07
2018-06-05T06:56:16.224Z,32.66
2018-06-05T06:58:46.920Z,32.53
2018-06-05T07:01:24.146Z,32.23
2018-06-05T07:03:55.616Z,32.79
2018-06-05T07:06:26.494Z,32.94
2018-06-05T07:09:00.964Z,31.47
2018-06-05T07:11:32.302Z,32.97
2018-06-05T07:14:04.949Z,31.84
2018-06-05T07:16:38.314Z,31.97
2018-06-05T07:19:10.365Z,30.78
2018-06-05T07:21:43.348Z,30.66
2018-06-05T07:24:14.687Z,30.82
2018-06-05T07:26:45.359Z,30.98
2018-06-05T07:29:19.777Z,30.49
2018-06-05T07:31:50.382Z,31.29
2018-06-05T07:34:22.292Z,30.54
2018-06-05T07:36:52.945Z,30.51
2018-06-05T07:39:24.419Z,31.36
2018-06-05T07:41:55.551Z,31.06
2018-06-05T07:44:26.846Z,30.17
2018-06-05T07:46:57.699Z,30.31
2018-06-05T07:49:29.702Z,31.66
2018-06-05T07:52:00.593Z,31.29
2018-06-05T07:54:31.396Z,31.58
2018-06-05T07:57:02.142Z,31.29
2018-06-05T07:59:33.687Z,31.60
2018-06-05T08:02:04.905Z,30.90
2018-06-05T08:04:36.066Z,30.31
2018-06-05T08:07:07.334Z,31.19
2018-06-05T08:09:38.476Z,30.39
2018-06-05T08:12:10.212Z,30.13
2018-06-05T08:14:42.452Z,30.03
2018-06-05T08:17:14.246Z,30.40
2018-06-05T08:19:45.487Z,29.41
2018-06-05T08:22:17.066Z,29.54
2018-06-05T08:24:49.576Z,29.57
2018-06-05T08:27:20.034Z,28.74
2018-06-05T08:29:51.807Z,29.52
2018-06-05T08:32:25.295Z,29.13
2018-06-05T08:34:57.945Z,29.99
2018-06-05T08:37:31.565Z,29.44
2018-06-05T08:40:03.560Z,29.97
2018-06-05T08:42:34.690Z,28.99
2018-06-05T08:45:06.403Z,28.87
2018-06-05T08:47:38.170Z,28.43
2018-06-05T08:50:09.132Z,28.53
2018-06-05T08:52:39.733Z,29.75
2018-06-05T08:55:10.354Z,29.80
2018-06-05T08:57:42.206Z,29.52
2018-06-05T09:00:14.691Z,29.81
2018-06-05T09:02:46.939Z,29.69
2018-06-05T09:05:18.743Z,29.75
2018-06-05T09:07:50.272Z,29.58
2018-06-05T09:10:22.951Z,29.95
2018-06-05T09:12:54.219Z,29.86
2018-06-05T09:15:29.511Z,29.02
2018-06-05T09:18:01.880Z,30.19
2018-06-05T09:20:33.743Z,29.83
2018-06-05T09:23:04.165Z,30.22
2018-06-05T09:25:34.876Z,29.28
2018-06-05T09:28:06.765Z,30.02
2018-06-05T09:30:37.278Z,28.75
2018-06-05T09:33:07.738Z,29.10
2018-06-05T09:35:39.260Z,29.14
2018-06-05T09:38:10.587Z,29.84
2018-06-05T09:40:42.372Z,29.66
2018-06-05T09:43:13.688Z,30.17
2018-06-05T09:45:44.922Z,29.76
2018-06-05T09:48:18.308Z,29.09
2018-06-05T09:50:51.264Z,29.10
2018-06-05T09:53:23.871Z,28.42
2018-06-05T09:55:57.239Z,28.38
2018-06-05T09:58:29.226Z,28.62
2018-06-05T10:01:00.316Z,28.82
2018-06-05T10:03:32.376Z,29.41
2018-06-05T10:06:03.191Z,28.32
2018-06-05T10:08:34.764Z,27.61
2018-06-05T10:11:05.274Z,28.55
2018-06-05T10:13:36.404Z,27.95
2018-06-05T10:16:08.226Z,27.94
2018-06-05T10:18:39.636Z,29.09
2018-06-05T10:21:10.928Z,29.70
2018-06-05T10:23:43.674Z,28.65
2018-06-05T10:26:14.485Z,29.21
2018-06-05T10:28:45.829Z,28.46
2018-06-05T10:31:17.664Z,28.42
2018-06-05T10:33:48.200Z,28.68
2018-06-05T10:36:19.661Z,28.02
2018-06-05T10:38:50.805Z,28.11
2018-06-05T10:41:21.812Z,27.29
2018-06-05T10:43:53.038Z,27.80
2018-06-05T10:46:24.435Z,27.53
2018-06-05T10:48:56.068Z,27.60
2018-06-05T10:51:28.504Z,27.54
2018-06-05T10:53:59.970Z,27.80
2018-06-05T10:56:34.686Z,27.11
2018-06-05T10:59:07.470Z,26.99
2018-06-05T11:01:40.401Z,27.28
2018-06-05T11:04:14.808Z,27.65
2018-06-05T11:06:45.626Z,27.91
2018-06-05T11:09:18.358Z,26.50
2018-06-05T11:11:51.444Z,25.77
2018-06-05T11:14:26.681Z,26.60
2018-06-05T11:16:59.075Z,25.96
2018-06-05T11:19:31.373Z,26.64
2018-06-05T11:22:04.544Z,27.05
2018-06-05T11:24:36.646Z,26.64
2018-06-05T11:27:08.328Z,26.25
2018-06-05T11:29:39.643Z,27.12
2018-06-05T11:32:12.434Z,26.69
2018-06-05T11:34:42.935Z,25.95
2018-06-05T11:37:13.535Z,25.33
2018-06-05T11:39:49.557Z,26.34
2018-06-05T11:42:21.839Z,25.99
2018-06-05T11:44:54.095Z,25.21
2018-06-05T11:47:25.317Z,25.87
2018-06-05T11:49:58.269Z,25.75
2018-06-05T11:52:33.314Z,24.69
2018-06-05T11:55:05.516Z,25.10
2018-06-05T11:57:35.943Z,25.03
2018-06-05T12:00:18.224Z,24.83
2018-06-05T12:02:50.720Z,24.57
2018-06-05T12:05:21.444Z,24.74
2018-06-05T12:07:53.608Z,25.33
2018-06-05T12:10:25.765Z,25.41
2018-06-05T12:12:56.276Z,25.02
2018-06-05T12:15:31.815Z,25.07
2018-06-05T12:18:05.021Z,24.68
2018-06-05T12:20:36.191Z,24.26
2018-06-05T12:23:09.365Z,23.77
2018-06-05T12:25:42.482Z,24.25
2018-06-05T12:28:15.958Z,23.44
2018-06-05T12:30:50.978Z,24.10
2018-06-05T12:33:25.820Z,23.30
2018-06-05T12:36:00.229Z,23.24
2018-06-05T12:38:34.542Z,23.73
2018-06-05T12:41:08.823Z,23.54
2018-06-05T12:43:42.516Z,24.08
2018-06-05T12:46:16.299Z,23.05
2018-06-05T12:49:56.365Z,24.13
2018-06-05T12:52:31.013Z,23.32
2018-06-05T12:55:03.800Z,23.77
2018-06-05T12:57:36.932Z,24.18
2018-06-05T13:00:08.441Z,24.08
2018-06-05T13:02:44.705Z,24.10
2018-06-05T13:05:16.095Z,23.51
2018-06-05T13:07:49.551Z,24.28
2018-06-05T13:10:22.434Z,23.36
2018-06-05T13:12:53.925Z,22.73
2018-06-05T13:15:26.608Z,22.74
2018-06-05T13:17:58.552Z,23.38
2018-06-05T13:20:30.512Z,22.24
2018-06-05T13:23:02.604Z,22.12
2018-06-05T13:25:35.314Z,21.93
2018-06-05T13:28:07.543Z,21.16
2018-06-05T13:30:40.274Z,21.95
2018-06-05T13:33:12.638Z,21.57
2018-06-05T13:35:44.829Z,21.57
2018-06-05T13:38:20.252Z,21.70
2018-06-05T13:40:52.509Z,21.47
2018-06-05T13:43:27.665Z,21.72
2018-06-05T13:46:00.564Z,22.29
2018-06-05T13:48:34.374Z,22.59
2018-06-05T13:51:08.541Z,22.03
2018-06-05T13:53:42.019Z,21.59
2018-06-05T13:56:17.735Z,21.32
2018-06-05T13:58:52.119Z,20.87
2018-06-05T14:01:23.437Z,21.10
2018-06-05T14:03:57.768Z,21.36
2018-06-05T14:06:30.784Z,21.08
2018-06-05T14:09:04.644Z,20.99
2018-06-05T14:11:37.413Z,20.16
2018-06-05T14:14:13.834Z,20.71
2018-06-05T14:16:45.219Z,20.59
2018-06-05T14:19:17.389Z,21.69
2018-06-05T14:21:52.365Z,22.01
2018-06-05T14:24:24.960Z,21.45
2018-06-05T14:26:56.388Z,21.50
2018-06-05T14:29:28.591Z,20.81
2018-06-05T14:32:02.648Z,21.92
2018-06-05T14:34:35.608Z,21.34
2018-06-05T14:37:10.061Z,20.68
2018-06-05T14:39:42.976Z,20.36
2018-06-05T14:42:14.363Z,20.91
2018-06-05T14:44:48.575Z,20.92
2018-06-05T14:47:20.280Z,21.44
2018-06-05T14:49:51.770Z,20.98
2018-06-05T14:52:27.213Z,21.42
2018-06-05T14:54:58.648Z,21.03
2018-06-05T14:57:32.041Z,21.25
2018-06-05T15:00:08.477Z,21.07
2018-06-05T15:02:43.659Z,21.62
2018-06-05T15:05:17.660Z,20.46
2018-06-05T15:07:50.861Z,21.00
2018-06-05T15:10:22.535Z,21.02
2018-06-05T15:12:55.886Z,21.57
2018-06-05T15:15:28.187Z,20.65
2018-06-05T15:18:00.140Z,20.64
2018-06-05T15:20:33.395Z,20.69
2018-06-05T15:23:07.875Z,21.67
2018-06-05T15:25:43.324Z,21.87
2018-06-05T15:28:14.762Z,21.65
2018-06-05T15:30:46.562Z,21.69
2018-06-05T15:33:20.046Z,21.67
2018-06-05T15:35:52.754Z,21.99
2018-06-05T15:38:24.363Z,22.21
2018-06-05T15:40:57.570Z,21.91
2018-06-05T15:43:32.352Z,21.64
2018-06-05T15:46:07.241Z,21.51
2018-06-05T15:48:39.421Z,21.92
2018-06-05T15:51:12.339Z,22.14
2018-06-05T15:53:45.704Z,22.46
2018-06-05T15:56:17.223Z,22.20
2018-06-05T15:58:50.773Z,21.13
2018-06-05T16:01:24.644Z,21.29
2018-06-05T16:03:58.022Z,21.83
2018-06-05T16:06:31.865Z,21.44
2018-06-05T16:09:06.554Z,21.05
2018-06-05T16:11:39.334Z,21.21
2018-06-05T16:14:14.503Z,20.90
2018-06-05T16:16:46.838Z,21.22
2018-06-05T16:19:21.629Z,20.99
2018-06-05T16:21:55.014Z,22.22
2018-06-05T16:24:27.720Z,21.99
2018-06-05T16:26:59.251Z,21.83
2018-06-05T16:29:30.784Z,22.13
2018-06-05T16:32:04.424Z,22.50
2018-06-05T16:34:36.786Z,22.36
2018-06-05T16:37:09.854Z,21.83
2018-06-05T16:39:46.486Z,21.36
2018-06-05T16:42:19.448Z,21.63
2018-06-05T16:44:55.037Z,21.06
2018-06-05T16:47:28.560Z,20.57
2018-06-05T16:50:02.697Z,21.22
2018-06-05T16:52:38.041Z,20.68
2018-06-05T16:55:14.401Z,21.04
2018-06-05T16:57:48.863Z,20.41
2018-06-05T17:00:22.638Z,21.17
2018-06-05T17:02:56.002Z,21.43
2018-06-05T17:05:30.485Z,21.26
2018-06-05T17:08:04.667Z,21.05
2018-06-05T17:10:39.484Z,20.61
2018-06-05T17:13:14.805Z,20.77
2018-06-05T17:15:47.743Z,21.25
2018-06-05T17:18:19.942Z,21.61
2018-06-05T17:20:52.778Z,21.66
2018-06-05T17:23:25.085Z,21.75
2018-06-05T17:25:59.688Z,22.06
2018-06-05T17:28:33.980Z,22.17
2018-06-05T17:31:10.199Z,21.47
2018-06-05T17:36:35.698Z,21.45
2018-06-05T17:39:10.499Z,21.28
2018-06-05T17:44:32.467Z,20.85
2018-06-05T17:47:09.079Z,21.48
2018-06-05T17:49:44.331Z,22.08
2018-06-05T17:52:18.441Z,22.48
2018-06-05T17:54:53.033Z,22.88
2018-06-05T17:57:30.813Z,22.67
2018-06-05T18:00:05.955Z,22.96
2018-06-05T18:02:38.375Z,23.89
2018-06-05T18:05:12.246Z,24.85
2018-06-05T18:07:49.526Z,25.73
2018-06-05T18:10:24.429Z,27.05
2018-06-05T18:12:57.352Z,27.94
2018-06-05T18:15:33.450Z,29.56
2018-06-05T18:18:06.520Z,29.84
2018-06-05T18:20:43.296Z,30.98
2018-06-05T18:23:16.436Z,31.77
2018-06-05T18:25:49.908Z,32.28
2018-06-05T18:28:23.650Z,32.60
2018-06-05T18:30:55.033Z,33.20
2018-06-05T18:33:42.656Z,34.47
2018-06-05T18:36:17.202Z,33.88
2018-06-05T18:38:54.126Z,34.51
2018-06-05T18:41:27.853Z,34.27
2018-06-05T18:43:58.563Z,34.17
2018-06-05T18:46:29.905Z,34.45
2018-06-05T18:49:02.852Z,34.76
2018-06-05T18:51:40.592Z,34.60
2018-06-05T18:54:13.946Z,35.46
2018-06-05T18:56:45.483Z,35.68
2018-06-05T18:59:16.228Z,35.46
2018-06-05T19:01:52.478Z,35.31
2018-06-05T19:04:25.855Z,34.83
2018-06-05T19:07:01.194Z,35.75
2018-06-05T19:09:32.197Z,35.65
2018-06-05T19:12:04.351Z,34.90
2018-06-05T19:14:37.040Z,35.14
2018-06-05T19:17:10.434Z,35.55
2018-06-05T19:19:42.588Z,35.38
2018-06-05T19:22:16.865Z,36.01
2018-06-05T19:24:48.462Z,35.28
2018-06-05T19:27:22.535Z,35.48
2018-06-05T19:29:56.892Z,36.01
2018-06-05T19:32:29.986Z,35.77
2018-06-05T19:35:03.855Z,36.56
2018-06-05T19:37:38.149Z,36.16
2018-06-05T19:40:16.230Z,36.66
2018-06-05T19:42:55.151Z,36.77
2018-06-05T19:45:33.034Z,37.42
2018-06-05T19:48:05.207Z,37.68
2018-06-05T19:50:49.348Z,37.82
2018-06-05T19:53:25.294Z,37.45
2018-06-05T19:55:57.360Z,37.67
2018-06-05T19:58:33.782Z,37.67
2018-06-05T20:01:06.646Z,37.88
2018-06-05T20:03:40.363Z,38.22
2018-06-05T20:06:11.806Z,38.18
2018-06-05T20:08:42.839Z,38.34
2018-06-05T20:11:13.443Z,38.66
2018-06-05T20:13:44.431Z,38.57
2018-06-05T20:16:16.189Z,39.78
2018-06-05T20:18:48.953Z,39.39
2018-06-05T20:21:24.696Z,39.06
2018-06-05T20:23:59.745Z,39.76
2018-06-05T20:26:35.223Z,39.94
2018-06-05T20:29:10.557Z,40.05
2018-06-05T20:31:41.618Z,40.57
2018-06-05T20:34:13.191Z,39.94
2018-06-05T20:36:44.628Z,40.34
2018-06-05T20:39:15.776Z,40.85
2018-06-05T20:42:00.004Z,40.93
2018-06-05T20:44:37.761Z,41.30
2018-06-05T20:47:09.408Z,41.41
2018-06-05T20:49:39.988Z,41.39
2018-06-05T20:52:16.062Z,41.70
2018-06-05T20:54:51.638Z,41.68
2018-06-05T20:57:25.669Z,41.81
2018-06-05T20:59:56.286Z,41.97
2018-06-05T21:02:29.476Z,41.19
2018-06-05T21:05:02.363Z,41.83
2018-06-05T21:07:34.807Z,41.73
2018-06-05T21:10:07.333Z,41.71
2018-06-05T21:12:45.336Z,41.93
2018-06-05T21:15:17.643Z,42.77
2018-06-05T21:17:50.742Z,42.09
2018-06-05T21:20:21.279Z,43.08
2018-06-05T21:25:40.520Z,42.51
2018-06-05T21:28:11.017Z,42.55
2018-06-05T21:30:44.111Z,43.01
2018-06-05T21:33:16.196Z,42.69
2018-06-05T21:35:47.625Z,43.10
2018-06-05T21:38:18.175Z,43.03
2018-06-05T21:40:56.365Z,42.74
2018-06-05T21:43:35.598Z,43.04
2018-06-05T21:46:07.269Z,43.44
2018-06-05T21:48:38.821Z,42.97
2018-06-05T21:51:10.163Z,43.46
2018-06-05T21:53:42.348Z,42.65
2018-06-05T21:56:12.897Z,43.05
2018-06-05T21:58:44.292Z,43.03
2018-06-05T22:01:15.143Z,42.89
2018-06-05T22:03:45.369Z,43.23
2018-06-05T22:06:17.050Z,42.25
2018-06-05T22:08:49.862Z,43.17
2018-06-05T22:11:20.293Z,43.14
2018-06-05T22:13:56.641Z,43.22
2018-06-05T22:16:27.952Z,42.71
2018-06-05T22:19:03.556Z,42.69
2018-06-05T22:21:36.653Z,43.09
2018-06-05T22:24:08.655Z,43.12
2018-06-05T22:26:41.059Z,43.19
2018-06-05T22:29:11.554Z,42.48
2018-06-05T22:31:43.388Z,43.04
2018-06-05T22:36:52.632Z,42.82
2018-06-05T22:39:25.091Z,42.68
2018-06-05T22:41:58.898Z,43.10
2018-06-05T22:44:31.149Z,42.72
2018-06-05T22:47:01.810Z,42.78
2018-06-05T22:49:33.235Z,42.49
2018-06-05T22:52:03.971Z,42.49
2018-06-05T22:54:36.787Z,43.31
2018-06-05T22:57:07.998Z,43.28
2018-06-05T22:59:39.809Z,42.47
2018-06-05T23:02:11.530Z,42.55
2018-06-05T23:04:44.271Z,43.24
2018-06-05T23:07:14.779Z,43.30
2018-06-05T23:09:45.276Z,42.89
2018-06-05T23:12:19.230Z,42.83
2018-06-05T23:14:52.820Z,42.90
2018-06-05T23:17:23.736Z,43.09
2018-06-05T23:19:54.224Z,43.35
2018-06-05T23:22:24.715Z,43.46
2018-06-05T23:24:56.355Z,43.05
2018-06-05T23:27:28.678Z,43.73
2018-06-05T23:29:59.347Z,43.72
2018-06-05T23:32:30.052Z,43.77
2018-06-05T23:35:01.531Z,43.32
2018-06-05T23:37:32.440Z,43.60
2018-06-05T23:40:03.209Z,43.47
2018-06-05T23:42:35.651Z,43.71
2018-06-05T23:45:06.551Z,44.31
2018-06-05T23:47:37.139Z,44.12
2018-06-05T23:50:08.178Z,43.85
2018-06-05T23:52:39.431Z,43.70
2018-06-05T23:55:09.995Z,44.54
2018-06-05T23:57:40.637Z,44.71
